sensor_id;sensor_type;location;lat;lon;timestamp;pressure;altitude;pressure_sealevel;temperature;humidity
70546;BME280;58098;51.680;5.134;2023-04-24T00:00:19;100018.28;;;8.86;100.00
70546;BME280;58098;51.680;5.134;2023-04-24T00:02:45;100012.81;;;8.89;100.00
70546;BME280;58098;51.680;5.134;2023-04-24T00:05:14;99996.94;;;8.83;100.00
70546;BME280;58098;51.680;5.134;2023-04-24T00:07:44;99996.38;;;8.89;100.00
70546;BME280;58098;51.680;5.134;2023-04-24T00:10:10;99992.22;;;8.77;100.00
70546;BME280;58098;51.680;5.134;2023-04-24T00:12:36;99989.53;;;8.78;100.00
70546;BME280;58098;51.680;5.134;2023-04-24T00:15:02;100010.38;;;8.88;100.00
70546;BME280;58098;51.680;5.134;2023-04-24T00:17:27;100006.78;;;8.89;100.00
70546;BME280;58098;51.680;5.134;2023-04-24T00:19:53;100014.75;;;8.87;100.00
70546;BME280;58098;51.680;5.134;2023-04-24T00:22:24;100008.84;;;8.85;100.00
70546;BME280;58098;51.680;5.134;2023-04-24T00:24:50;100008.41;;;8.80;100.00
70546;BME280;58098;51.680;5.134;2023-04-24T00:27:15;100013.22;;;8.85;100.00
70546;BME280;58098;51.680;5.134;2023-04-24T00:29:40;100015.81;;;8.85;100.00
70546;BME280;58098;51.680;5.134;2023-04-24T00:32:05;99998.41;;;8.76;100.00
70546;BME280;58098;51.680;5.134;2023-04-24T00:34:31;100015.38;;;8.80;100.00
70546;BME280;58098;51.680;5.134;2023-04-24T00:36:57;100013.72;;;8.79;100.00
70546;BME280;58098;51.680;5.134;2023-04-24T00:39:22;99999.50;;;8.73;100.00
70546;BME280;58098;51.680;5.134;2023-04-24T00:41:48;100012.78;;;8.80;100.00
70546;BME280;58098;51.680;5.134;2023-04-24T00:44:14;100002.91;;;8.74;100.00
70546;BME280;58098;51.680;5.134;2023-04-24T00:46:39;100012.78;;;8.80;100.00
70546;BME280;58098;51.680;5.134;2023-04-24T00:49:05;100015.25;;;8.81;100.00
70546;BME280;58098;51.680;5.134;2023-04-24T00:51:31;100007.59;;;8.80;100.00
70546;BME280;58098;51.680;5.134;2023-04-24T00:53:58;100000.31;;;8.74;100.00
70546;BME280;58098;51.680;5.134;2023-04-24T00:56:23;100003.88;;;8.73;100.00
70546;BME280;58098;51.680;5.134;2023-04-24T00:58:49;100001.25;;;8.73;100.00
70546;BME280;58098;51.680;5.134;2023-04-24T01:01:15;100008.13;;;8.74;100.00
70546;BME280;58098;51.680;5.134;2023-04-24T01:03:40;100016.22;;;8.80;100.00
70546;BME280;58098;51.680;5.134;2023-04-24T01:06:06;100006.22;;;8.76;100.00
70546;BME280;58098;51.680;5.134;2023-04-24T01:08:32;100016.31;;;8.79;100.00
70546;BME280;58098;51.680;5.134;2023-04-24T01:10:58;100009.78;;;8.84;100.00
70546;BME280;58098;51.680;5.134;2023-04-24T01:13:24;100012.78;;;8.80;100.00
70546;BME280;58098;51.680;5.134;2023-04-24T01:15:49;100022.69;;;8.86;100.00
70546;BME280;58098;51.680;5.134;2023-04-24T01:18:15;100009.34;;;8.79;100.00
70546;BME280;58098;51.680;5.134;2023-04-24T01:20:42;100008.28;;;8.82;100.00
70546;BME280;58098;51.680;5.134;2023-04-24T01:23:08;100016.75;;;8.84;100.00
70546;BME280;58098;51.680;5.134;2023-04-24T01:25:34;100003.72;;;8.74;100.00
70546;BME280;58098;51.680;5.134;2023-04-24T01:28:01;100016.31;;;8.79;100.00
70546;BME280;58098;51.680;5.134;2023-04-24T01:30:27;100014.44;;;8.81;100.00
70546;BME280;58098;51.680;5.134;2023-04-24T01:32:53;100017.75;;;8.83;100.00
70546;BME280;58098;51.680;5.134;2023-04-24T01:35:19;100018.69;;;8.82;100.00
70546;BME280;58098;51.680;5.134;2023-04-24T01:37:45;100012.66;;;8.81;100.00
70546;BME280;58098;51.680;5.134;2023-04-24T01:40:11;100005.38;;;8.75;100.00
70546;BME280;58098;51.680;5.134;2023-04-24T01:42:36;100007.28;;;8.73;100.00
70546;BME280;58098;51.680;5.134;2023-04-24T01:45:03;100016.06;;;8.82;100.00
70546;BME280;58098;51.680;5.134;2023-04-24T01:47:30;100000.44;;;8.72;100.00
70546;BME280;58098;51.680;5.134;2023-04-24T01:49:56;100002.91;;;8.74;100.00
70546;BME280;58098;51.680;5.134;2023-04-24T01:52:22;100011.41;;;8.76;100.00
70546;BME280;58098;51.680;5.134;2023-04-24T01:54:48;100007.59;;;8.80;100.00
70546;BME280;58098;51.680;5.134;2023-04-24T01:57:14;99994.28;;;8.73;100.00
70546;BME280;58098;51.680;5.134;2023-04-24T01:59:41;100009.50;;;8.78;100.00
70546;BME280;58098;51.680;5.134;2023-04-24T02:02:06;100018.53;;;8.74;100.00
70546;BME280;58098;51.680;5.134;2023-04-24T02:04:32;100001.41;;;8.71;100.00
70546;BME280;58098;51.680;5.134;2023-04-24T02:06:58;100018.00;;;8.80;100.00
70546;BME280;58098;51.680;5.134;2023-04-24T02:09:23;100024.13;;;8.79;100.00
70546;BME280;58098;51.680;5.134;2023-04-24T02:11:49;100011.91;;;8.70;100.00
70546;BME280;58098;51.680;5.134;2023-04-24T02:14:14;100025.06;;;8.68;100.00
70546;BME280;58098;51.680;5.134;2023-04-24T02:16:40;100026.44;;;8.72;100.00
70546;BME280;58098;51.680;5.134;2023-04-24T02:19:05;100019.97;;;8.67;100.00
70546;BME280;58098;51.680;5.134;2023-04-24T02:21:30;100022.84;;;8.63;100.00
70546;BME280;58098;51.680;5.134;2023-04-24T02:23:56;100029.94;;;8.61;100.00
70546;BME280;58098;51.680;5.134;2023-04-24T02:26:21;100026.78;;;8.58;100.00
70546;BME280;58098;51.680;5.134;2023-04-24T02:28:47;100025.00;;;8.58;100.00
70546;BME280;58098;51.680;5.134;2023-04-24T02:31:12;100033.75;;;8.57;100.00
70546;BME280;58098;51.680;5.134;2023-04-24T02:33:37;100019.63;;;8.50;100.00
70546;BME280;58098;51.680;5.134;2023-04-24T02:36:03;100014.81;;;8.46;100.00
70546;BME280;58098;51.680;5.134;2023-04-24T02:38:29;100017.25;;;8.47;100.00
70546;BME280;58098;51.680;5.134;2023-04-24T02:40:54;99980.19;;;8.25;100.00
70546;BME280;58098;51.680;5.134;2023-04-24T02:43:20;100028.94;;;8.53;100.00
70546;BME280;58098;51.680;5.134;2023-04-24T02:45:45;100019.16;;;8.45;100.00
70546;BME280;58098;51.680;5.134;2023-04-24T02:48:11;100018.91;;;8.48;100.00
70546;BME280;58098;51.680;5.134;2023-04-24T02:50:36;100012.34;;;8.44;100.00
70546;BME280;58098;51.680;5.134;2023-04-24T02:53:01;100007.88;;;8.35;100.00
70546;BME280;58098;51.680;5.134;2023-04-24T02:55:27;99999.25;;;8.35;100.00
70546;BME280;58098;51.680;5.134;2023-04-24T02:57:53;100016.66;;;8.34;100.00
70546;BME280;58098;51.680;5.134;2023-04-24T03:00:18;100003.91;;;8.31;100.00
70546;BME280;58098;51.680;5.134;2023-04-24T03:02:45;99988.31;;;8.20;100.00
70546;BME280;58098;51.680;5.134;2023-04-24T03:05:10;99991.06;;;8.19;100.00
70546;BME280;58098;51.680;5.134;2023-04-24T03:07:37;99998.72;;;8.20;100.00
70546;BME280;58098;51.680;5.134;2023-04-24T03:10:03;99997.91;;;8.20;100.00
70546;BME280;58098;51.680;5.134;2023-04-24T03:12:28;99993.34;;;8.12;100.00
70546;BME280;58098;51.680;5.134;2023-04-24T03:14:54;100000.63;;;8.18;100.00
70546;BME280;58098;51.680;5.134;2023-04-24T03:17:19;99996.19;;;8.09;100.00
70546;BME280;58098;51.680;5.134;2023-04-24T03:19:44;99991.84;;;8.10;100.00
70546;BME280;58098;51.680;5.134;2023-04-24T03:22:10;99992.91;;;8.07;100.00
70546;BME280;58098;51.680;5.134;2023-04-24T03:24:36;99995.59;;;8.06;100.00
70546;BME280;58098;51.680;5.134;2023-04-24T03:27:01;99975.59;;;7.96;100.00
70546;BME280;58098;51.680;5.134;2023-04-24T03:29:26;99986.56;;;8.00;100.00
70546;BME280;58098;51.680;5.134;2023-04-24T03:31:52;99992.59;;;8.01;100.00
70546;BME280;58098;51.680;5.134;2023-04-24T03:34:17;99982.69;;;7.94;100.00
70546;BME280;58098;51.680;5.134;2023-04-24T03:36:43;99995.06;;;8.02;100.00
70546;BME280;58098;51.680;5.134;2023-04-24T03:39:08;99993.41;;;8.01;100.00
70546;BME280;58098;51.680;5.134;2023-04-24T03:41:33;99994.47;;;7.98;100.00
70546;BME280;58098;51.680;5.134;2023-04-24T03:43:58;99982.94;;;7.91;100.00
70546;BME280;58098;51.680;5.134;2023-04-24T03:46:24;99973.25;;;7.93;100.00
70546;BME280;58098;51.680;5.134;2023-04-24T03:48:49;99969.13;;;7.91;100.00
70546;BME280;58098;51.680;5.134;2023-04-24T03:51:15;99977.13;;;7.99;100.00
70546;BME280;58098;51.680;5.134;2023-04-24T03:53:40;99974.22;;;7.92;100.00
70546;BME280;58098;51.680;5.134;2023-04-24T03:56:05;99978.72;;;7.90;100.00
70546;BME280;58098;51.680;5.134;2023-04-24T03:58:31;99995.28;;;7.99;100.00
70546;BME280;58098;51.680;5.134;2023-04-24T04:00:56;99989.78;;;7.92;100.00
70546;BME280;58098;51.680;5.134;2023-04-24T04:03:23;99998.72;;;7.99;100.00
70546;BME280;58098;51.680;5.134;2023-04-24T04:05:48;99996.13;;;7.99;100.00
70546;BME280;58098;51.680;5.134;2023-04-24T04:08:14;100008.19;;;8.01;100.00
70546;BME280;58098;51.680;5.134;2023-04-24T04:10:39;100007.06;;;8.03;100.00
70546;BME280;58098;51.680;5.134;2023-04-24T04:13:05;100012.28;;;8.03;100.00
70546;BME280;58098;51.680;5.134;2023-04-24T04:15:31;100006.66;;;7.98;100.00
70546;BME280;58098;51.680;5.134;2023-04-24T04:17:57;99998.88;;;7.98;100.00
70546;BME280;58098;51.680;5.134;2023-04-24T04:20:22;100017.22;;;8.06;100.00
70546;BME280;58098;51.680;5.134;2023-04-24T04:22:47;100028.44;;;8.07;100.00
70546;BME280;58098;51.680;5.134;2023-04-24T04:25:13;100024.78;;;8.09;100.00
70546;BME280;58098;51.680;5.134;2023-04-24T04:27:39;100020.78;;;8.05;100.00
70546;BME280;58098;51.680;5.134;2023-04-24T04:30:04;100029.03;;;8.10;100.00
70546;BME280;58098;51.680;5.134;2023-04-24T04:32:34;100035.16;;;8.09;100.00
70546;BME280;58098;51.680;5.134;2023-04-24T04:35:00;100039.44;;;8.10;100.00
70546;BME280;58098;51.680;5.134;2023-04-24T04:37:29;100026.22;;;8.02;100.00
70546;BME280;58098;51.680;5.134;2023-04-24T04:39:55;100021.97;;;8.01;100.00
70546;BME280;58098;51.680;5.134;2023-04-24T04:42:20;100035.41;;;8.06;100.00
70546;BME280;58098;51.680;5.134;2023-04-24T04:44:45;100028.44;;;8.07;100.00
70546;BME280;58098;51.680;5.134;2023-04-24T04:47:11;100035.41;;;8.06;100.00
70546;BME280;58098;51.680;5.134;2023-04-24T04:49:38;100025.41;;;8.02;100.00
70546;BME280;58098;51.680;5.134;2023-04-24T04:52:03;100035.66;;;8.03;100.00
70546;BME280;58098;51.680;5.134;2023-04-24T04:54:29;100033.31;;;8.00;100.00
70546;BME280;58098;51.680;5.134;2023-04-24T04:56:54;100044.03;;;8.07;100.00
70546;BME280;58098;51.680;5.134;2023-04-24T04:59:20;100030.97;;;7.97;100.00
70546;BME280;58098;51.680;5.134;2023-04-24T05:01:46;100038.63;;;7.98;100.00
70546;BME280;58098;51.680;5.134;2023-04-24T05:04:11;100050.63;;;8.11;100.00
70546;BME280;58098;51.680;5.134;2023-04-24T05:06:36;100038.25;;;8.03;100.00
70546;BME280;58098;51.680;5.134;2023-04-24T05:09:02;100040.75;;;8.05;100.00
70546;BME280;58098;51.680;5.134;2023-04-24T05:11:28;100044.28;;;8.04;100.00
70546;BME280;58098;51.680;5.134;2023-04-24T05:13:54;100063.50;;;8.12;100.00
70546;BME280;58098;51.680;5.134;2023-04-24T05:16:19;100074.81;;;8.22;100.00
70546;BME280;58098;51.680;5.134;2023-04-24T05:18:45;100067.03;;;8.11;100.00
70546;BME280;58098;51.680;5.134;2023-04-24T05:21:10;100081.28;;;8.28;100.00
70546;BME280;58098;51.680;5.134;2023-04-24T05:23:35;100099.97;;;8.22;100.00
70546;BME280;58098;51.680;5.134;2023-04-24T05:26:01;100082.25;;;8.16;100.00
70546;BME280;58098;51.680;5.134;2023-04-24T05:28:27;100084.84;;;8.16;100.00
70546;BME280;58098;51.680;5.134;2023-04-24T05:30:54;100097.66;;;8.08;100.00
70546;BME280;58098;51.680;5.134;2023-04-24T05:33:20;100094.78;;;8.11;100.00
70546;BME280;58098;51.680;5.134;2023-04-24T05:35:47;100093.53;;;8.05;100.00
70546;BME280;58098;51.680;5.134;2023-04-24T05:38:12;100096.13;;;8.05;100.00
70546;BME280;58098;51.680;5.134;2023-04-24T05:40:38;100112.03;;;8.12;100.00
70546;BME280;58098;51.680;5.134;2023-04-24T05:43:04;100120.44;;;8.15;100.00
70546;BME280;58098;51.680;5.134;2023-04-24T05:45:29;100108.38;;;8.03;100.00
70546;BME280;58098;51.680;5.134;2023-04-24T05:47:54;100116.91;;;8.05;100.00
70546;BME280;58098;51.680;5.134;2023-04-24T05:50:20;100126.34;;;8.06;100.00
70546;BME280;58098;51.680;5.134;2023-04-24T05:52:45;100135.09;;;8.05;100.00
70546;BME280;58098;51.680;5.134;2023-04-24T05:55:11;100139.69;;;8.02;100.00
70546;BME280;58098;51.680;5.134;2023-04-24T05:57:36;100152.09;;;8.09;100.00
70546;BME280;58098;51.680;5.134;2023-04-24T06:00:03;100140.41;;;8.04;100.00
70546;BME280;58098;51.680;5.134;2023-04-24T06:02:29;100167.75;;;8.19;100.00
70546;BME280;58098;51.680;5.134;2023-04-24T06:05:00;100162.47;;;8.09;100.00
70546;BME280;58098;51.680;5.134;2023-04-24T06:07:26;100174.78;;;8.07;100.00
70546;BME280;58098;51.680;5.134;2023-04-24T06:09:51;100179.13;;;8.07;100.00
70546;BME280;58098;51.680;5.134;2023-04-24T06:12:17;100167.91;;;8.06;100.00
70546;BME280;58098;51.680;5.134;2023-04-24T06:14:43;100197.28;;;8.18;100.00
70546;BME280;58098;51.680;5.134;2023-04-24T06:17:08;100198.56;;;8.23;100.00
70546;BME280;58098;51.680;5.134;2023-04-24T06:19:33;100200.00;;;8.16;100.00
70546;BME280;58098;51.680;5.134;2023-04-24T06:21:59;100212.53;;;8.11;100.00
70546;BME280;58098;51.680;5.134;2023-04-24T06:24:27;100225.75;;;8.19;100.00
70546;BME280;58098;51.680;5.134;2023-04-24T06:26:53;100230.50;;;8.03;100.00
70546;BME280;58098;51.680;5.134;2023-04-24T06:29:18;100250.81;;;8.09;100.00
70546;BME280;58098;51.680;5.134;2023-04-24T06:31:43;100263.81;;;7.98;100.00
70546;BME280;58098;51.680;5.134;2023-04-24T06:34:08;100276.78;;;8.09;100.00
70546;BME280;58098;51.680;5.134;2023-04-24T06:36:34;100265.81;;;8.06;100.00
70546;BME280;58098;51.680;5.134;2023-04-24T06:39:01;100296.41;;;8.02;100.00
70546;BME280;58098;51.680;5.134;2023-04-24T06:41:27;100347.28;;;7.93;100.00
70546;BME280;58098;51.680;5.134;2023-04-24T06:43:52;100366.03;;;7.75;100.00
70546;BME280;58098;51.680;5.134;2023-04-24T06:46:18;100345.72;;;7.69;100.00
70546;BME280;58098;51.680;5.134;2023-04-24T06:48:43;100327.66;;;7.67;100.00
70546;BME280;58098;51.680;5.134;2023-04-24T06:51:08;100369.19;;;7.67;100.00
70546;BME280;58098;51.680;5.134;2023-04-24T06:53:34;100348.56;;;7.66;100.00
70546;BME280;58098;51.680;5.134;2023-04-24T06:56:00;100366.25;;;7.72;100.00
70546;BME280;58098;51.680;5.134;2023-04-24T06:58:25;100370.38;;;7.74;100.00
70546;BME280;58098;51.680;5.134;2023-04-24T07:00:51;100378.31;;;7.73;100.00
70546;BME280;58098;51.680;5.134;2023-04-24T07:03:16;100376.19;;;7.78;100.00
70546;BME280;58098;51.680;5.134;2023-04-24T07:05:42;100382.09;;;7.69;100.00
70546;BME280;58098;51.680;5.134;2023-04-24T07:08:07;100377.59;;;7.71;100.00
70546;BME280;58098;51.680;5.134;2023-04-24T07:10:33;100358.94;;;7.66;100.00
70546;BME280;58098;51.680;5.134;2023-04-24T07:13:00;100347.00;;;7.63;100.00
70546;BME280;58098;51.680;5.134;2023-04-24T07:15:26;100342.88;;;7.72;100.00
70546;BME280;58098;51.680;5.134;2023-04-24T07:17:51;100335.09;;;7.72;100.00
70546;BME280;58098;51.680;5.134;2023-04-24T07:20:17;100350.09;;;7.79;100.00
70546;BME280;58098;51.680;5.134;2023-04-24T07:22:42;100347.28;;;7.82;100.00
70546;BME280;58098;51.680;5.134;2023-04-24T07:25:08;100344.91;;;7.68;100.00
70546;BME280;58098;51.680;5.134;2023-04-24T07:27:34;100363.06;;;7.68;100.00
70546;BME280;58098;51.680;5.134;2023-04-24T07:30:01;100388.22;;;7.79;100.00
70546;BME280;58098;51.680;5.134;2023-04-24T07:32:26;100382.31;;;7.66;100.00
70546;BME280;58098;51.680;5.134;2023-04-24T07:34:51;100379.50;;;7.69;100.00
70546;BME280;58098;51.680;5.134;2023-04-24T07:37:17;100390.25;;;7.75;100.00
70546;BME280;58098;51.680;5.134;2023-04-24T07:39:42;100408.28;;;7.77;100.00
70546;BME280;58098;51.680;5.134;2023-04-24T07:42:07;100399.56;;;7.78;100.00
70546;BME280;58098;51.680;5.134;2023-04-24T07:44:33;100422.66;;;7.70;100.00
70546;BME280;58098;51.680;5.134;2023-04-24T07:46:58;100423.63;;;7.69;100.00
70546;BME280;58098;51.680;5.134;2023-04-24T07:49:23;100425.81;;;7.62;100.00
70546;BME280;58098;51.680;5.134;2023-04-24T07:51:49;100441.84;;;7.80;100.00
70546;BME280;58098;51.680;5.134;2023-04-24T07:54:15;100435.13;;;7.54;100.00
70546;BME280;58098;51.680;5.134;2023-04-24T07:56:41;100431.34;;;7.58;100.00
70546;BME280;58098;51.680;5.134;2023-04-24T07:59:08;100453.97;;;7.68;100.00
70546;BME280;58098;51.680;5.134;2023-04-24T08:01:34;100460.56;;;7.72;100.00
70546;BME280;58098;51.680;5.134;2023-04-24T08:04:00;100454.78;;;7.69;100.00
70546;BME280;58098;51.680;5.134;2023-04-24T08:06:25;100469.69;;;7.78;100.00
70546;BME280;58098;51.680;5.134;2023-04-24T08:08:57;100490.47;;;7.78;100.00
70546;BME280;58098;51.680;5.134;2023-04-24T08:11:24;100485.13;;;7.68;100.00
70546;BME280;58098;51.680;5.134;2023-04-24T08:13:49;100489.13;;;7.72;100.00
70546;BME280;58098;51.680;5.134;2023-04-24T08:16:15;100486.25;;;7.64;100.00
70546;BME280;58098;51.680;5.134;2023-04-24T08:18:40;100515.78;;;7.63;100.00
70546;BME280;58098;51.680;5.134;2023-04-24T08:21:06;100512.34;;;7.63;100.00
70546;BME280;58098;51.680;5.134;2023-04-24T08:23:31;100515.16;;;7.60;100.00
70546;BME280;58098;51.680;5.134;2023-04-24T08:25:56;100510.91;;;7.59;100.00
70546;BME280;58098;51.680;5.134;2023-04-24T08:28:23;100531.34;;;7.63;100.00
70546;BME280;58098;51.680;5.134;2023-04-24T08:30:48;100543.88;;;7.69;100.00
70546;BME280;58098;51.680;5.134;2023-04-24T08:33:14;100537.38;;;7.64;100.00
70546;BME280;58098;51.680;5.134;2023-04-24T08:35:39;100535.53;;;7.77;100.00
70546;BME280;58098;51.680;5.134;2023-04-24T08:38:05;100556.78;;;7.94;100.00
70546;BME280;58098;51.680;5.134;2023-04-24T08:40:32;100563.72;;;7.94;100.00
70546;BME280;58098;51.680;5.134;2023-04-24T08:42:59;100563.94;;;7.91;100.00
70546;BME280;58098;51.680;5.134;2023-04-24T08:45:24;100569.59;;;7.85;100.00
70546;BME280;58098;51.680;5.134;2023-04-24T08:47:50;100578.78;;;7.78;100.00
70546;BME280;58098;51.680;5.134;2023-04-24T08:50:17;100576.72;;;7.70;100.00
70546;BME280;58098;51.680;5.134;2023-04-24T08:52:42;100602.34;;;7.75;100.00
70546;BME280;58098;51.680;5.134;2023-04-24T08:55:08;100590.94;;;7.65;100.00
70546;BME280;58098;51.680;5.134;2023-04-24T08:57:34;100603.00;;;7.66;100.00
70546;BME280;58098;51.680;5.134;2023-04-24T09:00:01;100616.78;;;7.79;100.00
70546;BME280;58098;51.680;5.134;2023-04-24T09:02:27;100610.94;;;7.88;100.00
70546;BME280;58098;51.680;5.134;2023-04-24T09:04:53;100623.22;;;7.86;100.00
70546;BME280;58098;51.680;5.134;2023-04-24T09:07:19;100635.53;;;7.95;100.00
70546;BME280;58098;51.680;5.134;2023-04-24T09:09:44;100633.31;;;8.02;100.00
70546;BME280;58098;51.680;5.134;2023-04-24T09:12:10;100638.41;;;8.03;100.00
70546;BME280;58098;51.680;5.134;2023-04-24T09:14:36;100644.44;;;8.04;100.00
70546;BME280;58098;51.680;5.134;2023-04-24T09:17:05;100643.34;;;7.95;100.00
70546;BME280;58098;51.680;5.134;2023-04-24T09:19:31;100647.47;;;7.97;100.00
70546;BME280;58098;51.680;5.134;2023-04-24T09:21:56;100661.19;;;7.99;100.00
70546;BME280;58098;51.680;5.134;2023-04-24T09:24:22;100668.69;;;7.91;100.00
70546;BME280;58098;51.680;5.134;2023-04-24T09:26:48;100674.75;;;7.79;100.00
70546;BME280;58098;51.680;5.134;2023-04-24T09:29:17;100674.53;;;7.82;100.00
70546;BME280;58098;51.680;5.134;2023-04-24T09:31:44;100690.31;;;7.79;100.00
70546;BME280;58098;51.680;5.134;2023-04-24T09:34:10;100695.53;;;7.79;100.00
70546;BME280;58098;51.680;5.134;2023-04-24T09:36:40;100662.91;;;7.75;100.00
70546;BME280;58098;51.680;5.134;2023-04-24T09:39:11;100689.78;;;7.87;100.00
70546;BME280;58098;51.680;5.134;2023-04-24T09:41:54;100705.47;;;7.98;100.00
70546;BME280;58098;51.680;5.134;2023-04-24T09:44:23;100699.91;;;8.15;100.00
70546;BME280;58098;51.680;5.134;2023-04-24T09:46:51;100697.91;;;8.19;100.00
70546;BME280;58098;51.680;5.134;2023-04-24T09:49:22;100689.59;;;8.26;100.00
70546;BME280;58098;51.680;5.134;2023-04-24T09:51:48;100719.03;;;8.27;100.00
70546;BME280;58098;51.680;5.134;2023-04-24T09:54:20;100721.94;;;8.22;100.00
70546;BME280;58098;51.680;5.134;2023-04-24T09:56:48;100728.59;;;8.26;100.00
70546;BME280;58098;51.680;5.134;2023-04-24T09:59:15;100734.28;;;8.31;100.00
70546;BME280;58098;51.680;5.134;2023-04-24T10:01:40;100720.47;;;8.18;100.00
70546;BME280;58098;51.680;5.134;2023-04-24T10:04:16;100741.38;;;8.29;100.00
70546;BME280;58098;51.680;5.134;2023-04-24T10:06:42;100744.31;;;8.12;100.00
70546;BME280;58098;51.680;5.134;2023-04-24T10:09:08;100754.25;;;8.18;100.00
70546;BME280;58098;51.680;5.134;2023-04-24T10:11:36;100743.47;;;8.12;100.00
70546;BME280;58098;51.680;5.134;2023-04-24T10:14:02;100750.75;;;8.07;100.00
70546;BME280;58098;51.680;5.134;2023-04-24T10:16:27;100740.19;;;7.97;100.00
70546;BME280;58098;51.680;5.134;2023-04-24T10:18:53;100746.38;;;8.20;100.00
70546;BME280;58098;51.680;5.134;2023-04-24T10:21:19;100756.66;;;8.57;100.00
70546;BME280;58098;51.680;5.134;2023-04-24T10:23:45;100775.19;;;8.77;100.00
70546;BME280;58098;51.680;5.134;2023-04-24T10:26:15;100776.81;;;8.90;100.00
70546;BME280;58098;51.680;5.134;2023-04-24T10:28:46;100769.16;;;9.00;100.00
70546;BME280;58098;51.680;5.134;2023-04-24T10:31:13;100759.81;;;9.08;100.00
70546;BME280;58098;51.680;5.134;2023-04-24T10:33:41;100786.47;;;9.12;100.00
70546;BME280;58098;51.680;5.134;2023-04-24T10:36:09;100771.84;;;8.98;100.00
70546;BME280;58098;51.680;5.134;2023-04-24T10:38:35;100757.41;;;8.94;100.00
70546;BME280;58098;51.680;5.134;2023-04-24T10:41:10;100793.13;;;8.92;100.00
70546;BME280;58098;51.680;5.134;2023-04-24T10:43:41;100793.22;;;8.91;100.00
70546;BME280;58098;51.680;5.134;2023-04-24T10:46:08;100778.28;;;8.82;100.00
70546;BME280;58098;51.680;5.134;2023-04-24T10:48:35;100787.09;;;8.92;100.00
70546;BME280;58098;51.680;5.134;2023-04-24T10:51:01;100794.00;;;9.04;100.00
70546;BME280;58098;51.680;5.134;2023-04-24T10:53:30;100795.00;;;9.25;100.00
70546;BME280;58098;51.680;5.134;2023-04-24T10:58:59;100806.19;;;9.95;100.00
70546;BME280;58098;51.680;5.134;2023-04-24T11:01:29;100791.63;;;10.15;100.00
70546;BME280;58098;51.680;5.134;2023-04-24T11:03:56;100808.47;;;10.22;100.00
70546;BME280;58098;51.680;5.134;2023-04-24T11:06:48;100812.25;;;10.29;100.00
70546;BME280;58098;51.680;5.134;2023-04-24T11:09:14;100790.66;;;10.05;100.00
70546;BME280;58098;51.680;5.134;2023-04-24T11:11:45;100807.09;;;10.05;100.00
70546;BME280;58098;51.680;5.134;2023-04-24T11:14:14;100824.63;;;9.81;100.00
70546;BME280;58098;51.680;5.134;2023-04-24T11:16:52;100819.91;;;9.75;100.00
70546;BME280;58098;51.680;5.134;2023-04-24T11:19:22;100831.50;;;9.71;100.00
70546;BME280;58098;51.680;5.134;2023-04-24T11:21:59;100814.06;;;9.60;100.00
70546;BME280;58098;51.680;5.134;2023-04-24T11:24:38;100837.94;;;9.54;100.00
70546;BME280;58098;51.680;5.134;2023-04-24T11:35:12;100837.34;;;9.16;100.00
70546;BME280;58098;51.680;5.134;2023-04-24T11:37:40;100856.44;;;9.27;100.00
70546;BME280;58098;51.680;5.134;2023-04-24T11:40:07;100847.63;;;9.41;100.00
70546;BME280;58098;51.680;5.134;2023-04-24T11:42:38;100847.00;;;9.72;100.00
70546;BME280;58098;51.680;5.134;2023-04-24T11:45:13;100870.44;;;10.18;100.00
70546;BME280;58098;51.680;5.134;2023-04-24T11:47:40;100857.13;;;10.10;100.00
70546;BME280;58098;51.680;5.134;2023-04-24T11:50:08;100848.84;;;10.27;100.00
70546;BME280;58098;51.680;5.134;2023-04-24T11:52:37;100866.28;;;10.38;100.00
70546;BME280;58098;51.680;5.134;2023-04-24T11:55:03;100859.28;;;10.27;100.00
70546;BME280;58098;51.680;5.134;2023-04-24T11:57:29;100867.97;;;10.17;100.00
70546;BME280;58098;51.680;5.134;2023-04-24T12:00:01;100878.13;;;10.20;100.00
70546;BME280;58098;51.680;5.134;2023-04-24T12:02:27;100880.50;;;10.12;100.00
70546;BME280;58098;51.680;5.134;2023-04-24T12:04:53;100873.81;;;10.08;100.00
70546;BME280;58098;51.680;5.134;2023-04-24T12:07:18;100894.69;;;9.96;100.00
70546;BME280;58098;51.680;5.134;2023-04-24T12:12:12;100893.13;;;9.94;100.00
70546;BME280;58098;51.680;5.134;2023-04-24T12:14:47;100889.91;;;9.79;100.00
70546;BME280;58098;51.680;5.134;2023-04-24T12:17:14;100893.53;;;9.66;100.00
70546;BME280;58098;51.680;5.134;2023-04-24T12:19:48;100908.34;;;9.65;100.00
70546;BME280;58098;51.680;5.134;2023-04-24T12:22:13;100900.47;;;9.54;100.00
70546;BME280;58098;51.680;5.134;2023-04-24T12:27:22;100917.88;;;9.30;100.00
70546;BME280;58098;51.680;5.134;2023-04-24T12:29:58;100928.13;;;8.97;100.00
70546;BME280;58098;51.680;5.134;2023-04-24T12:32:24;100928.09;;;8.60;100.00
70546;BME280;58098;51.680;5.134;2023-04-24T12:34:51;100919.56;;;8.58;100.00
70546;BME280;58098;51.680;5.134;2023-04-24T12:37:20;100931.22;;;8.66;100.00
70546;BME280;58098;51.680;5.134;2023-04-24T12:40:07;100922.63;;;8.76;100.00
70546;BME280;58098;51.680;5.134;2023-04-24T12:42:34;100935.50;;;9.03;100.00
70546;BME280;58098;51.680;5.134;2023-04-24T12:45:05;100920.81;;;9.49;100.00
70546;BME280;58098;51.680;5.134;2023-04-24T12:47:33;100930.31;;;9.85;100.00
70546;BME280;58098;51.680;5.134;2023-04-24T12:50:00;100936.59;;;9.82;100.00
70546;BME280;58098;51.680;5.134;2023-04-24T12:52:27;100948.78;;;9.82;100.00
70546;BME280;58098;51.680;5.134;2023-04-24T12:54:54;100950.63;;;9.69;100.00
70546;BME280;58098;51.680;5.134;2023-04-24T12:57:21;100940.09;;;9.70;100.00
70546;BME280;58098;51.680;5.134;2023-04-24T12:59:46;100952.94;;;9.95;100.00
70546;BME280;58098;51.680;5.134;2023-04-24T13:02:11;100950.69;;;10.37;100.00